Crab Meadow, New York
Current Conditions -  °F | °C
As of 5:53 AM on Saturday 20 Dec 2014 (Local Time) from KFRG Reporting Station
Overcast Overcast  
Wind Chill: 24°   Ceiling: 2600
Heat Index: 31°   Visibility: 10mi
Dew Point: 21°   Wind: 7mph
Humidity: 67%   Direction: 330°NNW
Pressure: 30.25"   Gusts: NA
Location:  40.9096°N, 73.3231°W
Report Text: KFRG 201053Z AUTO 33006KT 10SM OVC026 M01/M06 A3025 RMK AO2 SLP245 T10061061
Loading
Personal Weather Stations






























Interactive Weather Map New forecast layout! Learn more

10-Day Weather Forecast

Advertisements
Track Severe Weather on mobile